| Date | Time | Temp. (oF) | Dew Point (oF) | Rel. Hum. (%) | Press. (in.) | Wind Dir. | Wind Speed (mph) | Hourly Rainfall (in.) |
|
|---|---|---|---|---|---|---|---|---|---|
| 1 | 11/03 | 23:58 | 52 | 39 | 62 | 30.25 | SSE | 0 | 0.00 |
| 2 | 11/03 | 23:00 | 53 | 38 | 58 | 30.26 | NNW | 4 | 0.00 |
| 3 | 11/03 | 22:00 | 55 | 38 | 54 | 30.25 | NNW | 4 | 0.00 |
| 4 | 11/03 | 21:00 | 57 | 38 | 50 | 30.23 | WNW | 3 | 0.00 |
| 5 | 11/03 | 20:00 | 57 | 36 | 46 | 30.23 | NW | 5 | 0.00 |
| 6 | 11/03 | 19:00 | 59 | 36 | 43 | 30.21 | W | 1 | 0.00 |
| 7 | 11/03 | 18:00 | 62 | 36 | 39 | 30.18 | NNW | 2 | 0.00 |
| 8 | 11/03 | 17:00 | 65 | 37 | 36 | 30.16 | WNW | 3 | 0.00 |
| 9 | 11/03 | 16:00 | 68 | 36 | 32 | 30.14 | WNW | 6 | 0.00 |
| 10 | 11/03 | 15:00 | 70 | 36 | 30 | 30.14 | W | 9 | 0.00 |
| 11 | 11/03 | 14:00 | 69 | 35 | 30 | 30.17 | WNW | 4 | 0.00 |
| 12 | 11/03 | 13:00 | 68 | 35 | 31 | 30.19 | NNW | 8 | 0.00 |
| 13 | 11/03 | 12:00 | 68 | 39 | 35 | 30.21 | WNW | 16 | 0.00 |
| 14 | 11/03 | 11:00 | 66 | 43 | 45 | 30.23 | NW | 5 | 0.00 |
| 15 | 11/03 | 10:00 | 66 | 53 | 65 | 30.24 | W | 8 | 0.00 |
| 16 | 11/03 | 09:00 | 63 | 59 | 87 | 30.23 | WSW | 8 | 0.00 |
| 17 | 11/03 | 08:00 | 62 | 59 | 93 | 30.22 | WSW | 1 | 0.00 |
| 18 | 11/03 | 07:00 | 63 | 59 | 88 | 30.20 | WSW | 2 | 0.00 |
| 19 | 11/03 | 06:00 | 63 | 58 | 85 | 30.18 | WNW | 2 | 0.00 |
| 20 | 11/03 | 05:00 | 63 | 58 | 86 | 30.17 | W | 2 | 0.00 |
| 21 | 11/03 | 04:00 | 63 | 58 | 86 | 30.15 | WNW | 1 | 0.00 |
| 22 | 11/03 | 03:00 | 65 | 59 | 82 | 30.15 | N | 0 | 0.00 |
| 23 | 11/03 | 02:00 | 66 | 59 | 81 | 30.14 | S | 1 | 0.00 |
| 24 | 11/03 | 01:00 | 66 | 59 | 80 | 30.14 | SW | 3 | 0.00 |